sensor_id;sensor_type;location;lat;lon;timestamp;P1;durP1;ratioP1;P2;durP2;ratioP2
14550;SDS011;7362;50.956;4.184;2022-08-19T00:05:21;14.90;;;12.85;;
14550;SDS011;7362;50.956;4.184;2022-08-19T00:11:10;18.10;;;14.38;;
14550;SDS011;7362;50.956;4.184;2022-08-19T00:13:41;16.48;;;14.00;;
14550;SDS011;7362;50.956;4.184;2022-08-19T00:16:07;18.85;;;14.77;;
14550;SDS011;7362;50.956;4.184;2022-08-19T00:18:38;16.73;;;14.93;;
14550;SDS011;7362;50.956;4.184;2022-08-19T00:21:04;18.00;;;15.05;;
14550;SDS011;7362;50.956;4.184;2022-08-19T00:23:34;18.92;;;15.82;;
14550;SDS011;7362;50.956;4.184;2022-08-19T00:26:05;20.65;;;16.15;;
14550;SDS011;7362;50.956;4.184;2022-08-19T00:28:33;23.58;;;18.77;;
14550;SDS011;7362;50.956;4.184;2022-08-19T00:31:12;23.10;;;18.83;;
14550;SDS011;7362;50.956;4.184;2022-08-19T00:33:43;27.77;;;19.92;;
14550;SDS011;7362;50.956;4.184;2022-08-19T00:36:10;23.92;;;20.05;;
14550;SDS011;7362;50.956;4.184;2022-08-19T00:41:17;26.20;;;21.48;;
14550;SDS011;7362;50.956;4.184;2022-08-19T00:46:45;26.75;;;21.13;;
14550;SDS011;7362;50.956;4.184;2022-08-19T00:49:18;30.30;;;24.63;;
14550;SDS011;7362;50.956;4.184;2022-08-19T00:52:00;33.35;;;24.65;;
14550;SDS011;7362;50.956;4.184;2022-08-19T00:54:35;32.85;;;23.48;;
14550;SDS011;7362;50.956;4.184;2022-08-19T00:57:03;31.45;;;23.85;;
14550;SDS011;7362;50.956;4.184;2022-08-19T00:59:33;32.90;;;24.70;;
14550;SDS011;7362;50.956;4.184;2022-08-19T01:02:04;36.30;;;26.67;;
14550;SDS011;7362;50.956;4.184;2022-08-19T01:04:30;34.70;;;26.33;;
14550;SDS011;7362;50.956;4.184;2022-08-19T01:06:59;31.05;;;24.17;;
14550;SDS011;7362;50.956;4.184;2022-08-19T01:09:27;33.45;;;25.08;;
14550;SDS011;7362;50.956;4.184;2022-08-19T01:11:55;33.83;;;25.80;;
14550;SDS011;7362;50.956;4.184;2022-08-19T01:14:23;35.35;;;25.25;;
14550;SDS011;7362;50.956;4.184;2022-08-19T01:16:53;32.65;;;25.55;;
14550;SDS011;7362;50.956;4.184;2022-08-19T01:22:14;30.88;;;23.17;;
14550;SDS011;7362;50.956;4.184;2022-08-19T01:24:47;28.52;;;22.58;;
14550;SDS011;7362;50.956;4.184;2022-08-19T01:27:15;24.23;;;20.40;;
14550;SDS011;7362;50.956;4.184;2022-08-19T01:29:50;27.13;;;21.23;;
14550;SDS011;7362;50.956;4.184;2022-08-19T01:32:18;25.77;;;19.15;;
14550;SDS011;7362;50.956;4.184;2022-08-19T01:40:44;23.10;;;18.30;;
14550;SDS011;7362;50.956;4.184;2022-08-19T01:43:09;26.73;;;21.40;;
14550;SDS011;7362;50.956;4.184;2022-08-19T01:48:05;25.23;;;20.70;;
14550;SDS011;7362;50.956;4.184;2022-08-19T01:50:32;21.55;;;17.23;;
14550;SDS011;7362;50.956;4.184;2022-08-19T01:53:31;24.60;;;18.67;;
14550;SDS011;7362;50.956;4.184;2022-08-19T01:56:04;21.67;;;18.55;;
14550;SDS011;7362;50.956;4.184;2022-08-19T01:58:32;18.77;;;15.63;;
14550;SDS011;7362;50.956;4.184;2022-08-19T02:01:08;19.02;;;15.52;;
14550;SDS011;7362;50.956;4.184;2022-08-19T02:03:37;20.67;;;15.68;;
14550;SDS011;7362;50.956;4.184;2022-08-19T02:06:27;21.45;;;15.23;;
14550;SDS011;7362;50.956;4.184;2022-08-19T02:08:54;20.65;;;15.05;;
14550;SDS011;7362;50.956;4.184;2022-08-19T02:11:23;22.00;;;17.20;;
14550;SDS011;7362;50.956;4.184;2022-08-19T02:13:56;21.00;;;16.27;;
14550;SDS011;7362;50.956;4.184;2022-08-19T02:17:15;16.88;;;13.65;;
14550;SDS011;7362;50.956;4.184;2022-08-19T02:22:40;15.95;;;12.38;;
14550;SDS011;7362;50.956;4.184;2022-08-19T02:25:10;14.30;;;11.63;;
14550;SDS011;7362;50.956;4.184;2022-08-19T02:27:42;20.15;;;12.75;;
14550;SDS011;7362;50.956;4.184;2022-08-19T02:30:14;16.75;;;12.88;;
14550;SDS011;7362;50.956;4.184;2022-08-19T02:32:45;16.20;;;12.48;;
14550;SDS011;7362;50.956;4.184;2022-08-19T02:35:41;19.02;;;14.32;;
14550;SDS011;7362;50.956;4.184;2022-08-19T02:38:25;16.63;;;13.73;;
14550;SDS011;7362;50.956;4.184;2022-08-19T02:41:32;15.80;;;13.88;;
14550;SDS011;7362;50.956;4.184;2022-08-19T02:47:17;20.65;;;16.08;;
14550;SDS011;7362;50.956;4.184;2022-08-19T02:50:20;18.85;;;13.43;;
14550;SDS011;7362;50.956;4.184;2022-08-19T02:53:19;16.75;;;14.25;;
14550;SDS011;7362;50.956;4.184;2022-08-19T02:55:53;17.77;;;14.88;;
14550;SDS011;7362;50.956;4.184;2022-08-19T02:58:58;18.38;;;14.25;;
14550;SDS011;7362;50.956;4.184;2022-08-19T03:01:31;18.65;;;15.55;;
14550;SDS011;7362;50.956;4.184;2022-08-19T03:07:25;20.25;;;14.48;;
14550;SDS011;7362;50.956;4.184;2022-08-19T03:15:48;16.70;;;13.05;;
14550;SDS011;7362;50.956;4.184;2022-08-19T03:21:36;18.77;;;14.52;;
14550;SDS011;7362;50.956;4.184;2022-08-19T03:24:09;18.88;;;14.82;;
14550;SDS011;7362;50.956;4.184;2022-08-19T03:29:36;17.27;;;12.43;;
14550;SDS011;7362;50.956;4.184;2022-08-19T03:32:07;17.27;;;13.60;;
14550;SDS011;7362;50.956;4.184;2022-08-19T03:34:33;20.02;;;13.50;;
14550;SDS011;7362;50.956;4.184;2022-08-19T03:37:23;16.02;;;12.20;;
14550;SDS011;7362;50.956;4.184;2022-08-19T03:40:08;18.08;;;14.02;;
14550;SDS011;7362;50.956;4.184;2022-08-19T03:42:37;18.67;;;13.68;;
14550;SDS011;7362;50.956;4.184;2022-08-19T03:45:22;17.73;;;13.65;;
14550;SDS011;7362;50.956;4.184;2022-08-19T03:51:39;17.95;;;12.75;;
14550;SDS011;7362;50.956;4.184;2022-08-19T04:03:55;21.65;;;14.40;;
14550;SDS011;7362;50.956;4.184;2022-08-19T04:10:03;17.95;;;13.45;;
14550;SDS011;7362;50.956;4.184;2022-08-19T04:13:24;20.38;;;14.02;;
14550;SDS011;7362;50.956;4.184;2022-08-19T04:16:28;19.35;;;14.52;;
14550;SDS011;7362;50.956;4.184;2022-08-19T04:22:47;19.67;;;13.88;;
14550;SDS011;7362;50.956;4.184;2022-08-19T04:53:34;14.68;;;10.75;;
14550;SDS011;7362;50.956;4.184;2022-08-19T05:09:25;17.90;;;10.00;;
14550;SDS011;7362;50.956;4.184;2022-08-19T05:35:45;14.68;;;8.80;;
14550;SDS011;7362;50.956;4.184;2022-08-19T05:38:33;12.13;;;7.80;;
14550;SDS011;7362;50.956;4.184;2022-08-19T05:41:22;15.07;;;8.77;;
14550;SDS011;7362;50.956;4.184;2022-08-19T05:43:56;16.45;;;8.07;;
14550;SDS011;7362;50.956;4.184;2022-08-19T05:46:43;11.55;;;8.15;;
14550;SDS011;7362;50.956;4.184;2022-08-19T05:49:12;15.73;;;8.20;;
14550;SDS011;7362;50.956;4.184;2022-08-19T05:58:33;12.80;;;8.60;;
14550;SDS011;7362;50.956;4.184;2022-08-19T06:01:00;13.07;;;9.02;;
14550;SDS011;7362;50.956;4.184;2022-08-19T06:03:49;14.60;;;7.97;;
14550;SDS011;7362;50.956;4.184;2022-08-19T06:13:45;11.27;;;7.18;;
14550;SDS011;7362;50.956;4.184;2022-08-19T06:23:36;9.65;;;7.03;;
14550;SDS011;7362;50.956;4.184;2022-08-19T06:27:02;10.20;;;6.60;;
14550;SDS011;7362;50.956;4.184;2022-08-19T06:30:14;12.20;;;7.20;;
14550;SDS011;7362;50.956;4.184;2022-08-19T06:33:40;12.98;;;6.35;;
14550;SDS011;7362;50.956;4.184;2022-08-19T06:36:53;13.70;;;7.10;;
14550;SDS011;7362;50.956;4.184;2022-08-19T06:39:35;9.80;;;6.55;;
14550;SDS011;7362;50.956;4.184;2022-08-19T06:43:01;10.80;;;6.30;;
14550;SDS011;7362;50.956;4.184;2022-08-19T06:49:10;14.45;;;6.95;;
14550;SDS011;7362;50.956;4.184;2022-08-19T06:51:59;9.30;;;5.82;;
14550;SDS011;7362;50.956;4.184;2022-08-19T07:01:21;7.57;;;6.50;;
14550;SDS011;7362;50.956;4.184;2022-08-19T07:12:31;10.13;;;5.72;;
14550;SDS011;7362;50.956;4.184;2022-08-19T07:14:59;8.70;;;5.53;;
14550;SDS011;7362;50.956;4.184;2022-08-19T07:17:29;10.07;;;6.75;;
14550;SDS011;7362;50.956;4.184;2022-08-19T07:19:58;8.77;;;6.20;;
14550;SDS011;7362;50.956;4.184;2022-08-19T07:22:44;10.75;;;5.22;;
14550;SDS011;7362;50.956;4.184;2022-08-19T07:25:42;10.02;;;5.57;;
14550;SDS011;7362;50.956;4.184;2022-08-19T07:28:16;7.97;;;5.68;;
14550;SDS011;7362;50.956;4.184;2022-08-19T07:30:46;11.73;;;6.55;;
14550;SDS011;7362;50.956;4.184;2022-08-19T07:33:15;10.45;;;6.13;;
14550;SDS011;7362;50.956;4.184;2022-08-19T07:36:11;8.82;;;4.95;;
14550;SDS011;7362;50.956;4.184;2022-08-19T07:38:49;8.95;;;5.55;;
14550;SDS011;7362;50.956;4.184;2022-08-19T07:44:31;7.57;;;4.93;;
14550;SDS011;7362;50.956;4.184;2022-08-19T07:49:43;7.75;;;4.57;;
14550;SDS011;7362;50.956;4.184;2022-08-19T07:52:10;6.25;;;4.90;;
14550;SDS011;7362;50.956;4.184;2022-08-19T07:57:10;8.95;;;4.93;;
14550;SDS011;7362;50.956;4.184;2022-08-19T07:59:37;7.70;;;4.45;;
14550;SDS011;7362;50.956;4.184;2022-08-19T08:02:02;12.77;;;4.70;;
14550;SDS011;7362;50.956;4.184;2022-08-19T08:04:29;7.90;;;4.40;;
14550;SDS011;7362;50.956;4.184;2022-08-19T08:07:13;7.90;;;4.38;;
14550;SDS011;7362;50.956;4.184;2022-08-19T08:09:58;9.07;;;5.15;;
14550;SDS011;7362;50.956;4.184;2022-08-19T08:12:36;7.13;;;4.90;;
14550;SDS011;7362;50.956;4.184;2022-08-19T08:15:12;5.57;;;4.43;;
14550;SDS011;7362;50.956;4.184;2022-08-19T08:17:41;6.88;;;4.70;;
14550;SDS011;7362;50.956;4.184;2022-08-19T08:20:10;6.55;;;4.68;;
14550;SDS011;7362;50.956;4.184;2022-08-19T08:22:37;7.65;;;4.45;;
14550;SDS011;7362;50.956;4.184;2022-08-19T08:25:33;8.55;;;4.43;;
14550;SDS011;7362;50.956;4.184;2022-08-19T08:28:00;6.63;;;4.10;;
14550;SDS011;7362;50.956;4.184;2022-08-19T08:30:30;6.60;;;4.50;;
14550;SDS011;7362;50.956;4.184;2022-08-19T08:32:58;5.80;;;3.70;;
14550;SDS011;7362;50.956;4.184;2022-08-19T08:35:25;7.88;;;4.15;;
14550;SDS011;7362;50.956;4.184;2022-08-19T08:37:54;6.60;;;4.05;;
14550;SDS011;7362;50.956;4.184;2022-08-19T08:43:09;4.60;;;3.38;;
14550;SDS011;7362;50.956;4.184;2022-08-19T08:45:44;6.97;;;3.70;;
14550;SDS011;7362;50.956;4.184;2022-08-19T08:48:30;9.20;;;4.32;;
14550;SDS011;7362;50.956;4.184;2022-08-19T08:51:07;8.77;;;4.50;;
14550;SDS011;7362;50.956;4.184;2022-08-19T08:53:39;6.82;;;4.35;;
14550;SDS011;7362;50.956;4.184;2022-08-19T08:56:06;6.45;;;4.15;;
14550;SDS011;7362;50.956;4.184;2022-08-19T09:01:42;7.18;;;4.03;;
14550;SDS011;7362;50.956;4.184;2022-08-19T09:04:09;6.93;;;4.15;;
14550;SDS011;7362;50.956;4.184;2022-08-19T09:06:53;7.72;;;4.00;;
14550;SDS011;7362;50.956;4.184;2022-08-19T09:09:48;5.68;;;3.83;;
14550;SDS011;7362;50.956;4.184;2022-08-19T09:12:28;6.65;;;3.60;;
14550;SDS011;7362;50.956;4.184;2022-08-19T09:15:06;6.22;;;4.13;;
14550;SDS011;7362;50.956;4.184;2022-08-19T09:17:37;6.38;;;4.40;;
14550;SDS011;7362;50.956;4.184;2022-08-19T09:22:37;6.13;;;3.97;;
14550;SDS011;7362;50.956;4.184;2022-08-19T09:27:35;5.60;;;4.32;;
14550;SDS011;7362;50.956;4.184;2022-08-19T09:30:03;5.78;;;3.55;;
14550;SDS011;7362;50.956;4.184;2022-08-19T09:32:49;6.65;;;3.67;;
14550;SDS011;7362;50.956;4.184;2022-08-19T09:35:20;6.70;;;4.07;;
14550;SDS011;7362;50.956;4.184;2022-08-19T09:37:48;5.47;;;3.72;;
14550;SDS011;7362;50.956;4.184;2022-08-19T09:40:17;7.72;;;3.88;;
14550;SDS011;7362;50.956;4.184;2022-08-19T09:43:17;6.32;;;3.55;;
14550;SDS011;7362;50.956;4.184;2022-08-19T09:46:04;6.25;;;3.38;;
14550;SDS011;7362;50.956;4.184;2022-08-19T09:48:35;6.85;;;3.75;;
14550;SDS011;7362;50.956;4.184;2022-08-19T09:51:06;5.82;;;3.55;;
14550;SDS011;7362;50.956;4.184;2022-08-19T09:53:45;5.78;;;3.22;;
14550;SDS011;7362;50.956;4.184;2022-08-19T09:56:18;6.50;;;3.92;;
14550;SDS011;7362;50.956;4.184;2022-08-19T09:58:45;5.25;;;3.53;;
14550;SDS011;7362;50.956;4.184;2022-08-19T10:01:23;5.15;;;2.88;;
14550;SDS011;7362;50.956;4.184;2022-08-19T10:03:53;5.18;;;3.15;;
14550;SDS011;7362;50.956;4.184;2022-08-19T10:08:55;5.57;;;3.17;;
14550;SDS011;7362;50.956;4.184;2022-08-19T10:11:28;4.97;;;3.25;;
14550;SDS011;7362;50.956;4.184;2022-08-19T10:14:02;6.68;;;3.60;;
14550;SDS011;7362;50.956;4.184;2022-08-19T10:19:05;7.32;;;3.47;;
14550;SDS011;7362;50.956;4.184;2022-08-19T10:21:33;5.13;;;3.40;;
14550;SDS011;7362;50.956;4.184;2022-08-19T10:24:08;4.82;;;3.50;;
14550;SDS011;7362;50.956;4.184;2022-08-19T10:26:40;3.83;;;3.05;;
14550;SDS011;7362;50.956;4.184;2022-08-19T10:31:46;6.53;;;3.20;;
14550;SDS011;7362;50.956;4.184;2022-08-19T10:36:48;5.57;;;3.30;;
14550;SDS011;7362;50.956;4.184;2022-08-19T10:39:15;5.07;;;3.42;;
14550;SDS011;7362;50.956;4.184;2022-08-19T10:41:43;6.55;;;4.15;;
14550;SDS011;7362;50.956;4.184;2022-08-19T10:44:12;4.82;;;2.83;;
14550;SDS011;7362;50.956;4.184;2022-08-19T10:49:15;6.10;;;3.83;;
14550;SDS011;7362;50.956;4.184;2022-08-19T10:54:56;7.38;;;4.32;;
14550;SDS011;7362;50.956;4.184;2022-08-19T10:57:40;7.55;;;5.28;;
14550;SDS011;7362;50.956;4.184;2022-08-19T11:00:06;4.80;;;3.97;;
14550;SDS011;7362;50.956;4.184;2022-08-19T11:02:32;7.63;;;4.25;;
14550;SDS011;7362;50.956;4.184;2022-08-19T11:05:00;5.47;;;3.95;;
14550;SDS011;7362;50.956;4.184;2022-08-19T11:07:32;5.40;;;3.95;;
14550;SDS011;7362;50.956;4.184;2022-08-19T11:09:59;6.18;;;4.15;;
14550;SDS011;7362;50.956;4.184;2022-08-19T11:12:27;6.13;;;3.97;;
14550;SDS011;7362;50.956;4.184;2022-08-19T11:14:53;7.32;;;4.55;;
14550;SDS011;7362;50.956;4.184;2022-08-19T11:17:20;8.60;;;5.25;;
14550;SDS011;7362;50.956;4.184;2022-08-19T11:19:54;4.65;;;3.95;;
14550;SDS011;7362;50.956;4.184;2022-08-19T11:22:22;5.72;;;4.28;;
14550;SDS011;7362;50.956;4.184;2022-08-19T11:24:47;3.70;;;3.15;;
14550;SDS011;7362;50.956;4.184;2022-08-19T11:27:32;4.72;;;3.30;;
14550;SDS011;7362;50.956;4.184;2022-08-19T11:30:04;4.95;;;3.22;;
14550;SDS011;7362;50.956;4.184;2022-08-19T11:35:04;6.75;;;3.95;;
14550;SDS011;7362;50.956;4.184;2022-08-19T11:39:59;5.40;;;3.78;;
14550;SDS011;7362;50.956;4.184;2022-08-19T11:42:26;9.02;;;5.05;;
14550;SDS011;7362;50.956;4.184;2022-08-19T11:45:12;6.53;;;5.25;;
14550;SDS011;7362;50.956;4.184;2022-08-19T11:47:38;9.15;;;6.28;;
14550;SDS011;7362;50.956;4.184;2022-08-19T11:52:35;7.82;;;5.40;;
14550;SDS011;7362;50.956;4.184;2022-08-19T11:55:02;9.02;;;6.10;;
14550;SDS011;7362;50.956;4.184;2022-08-19T11:57:28;7.68;;;5.45;;
14550;SDS011;7362;50.956;4.184;2022-08-19T11:59:55;8.20;;;5.63;;
14550;SDS011;7362;50.956;4.184;2022-08-19T12:02:35;7.15;;;5.63;;
14550;SDS011;7362;50.956;4.184;2022-08-19T12:05:12;6.90;;;5.68;;
14550;SDS011;7362;50.956;4.184;2022-08-19T12:07:54;8.07;;;5.68;;
14550;SDS011;7362;50.956;4.184;2022-08-19T12:10:24;7.32;;;5.45;;
14550;SDS011;7362;50.956;4.184;2022-08-19T12:12:50;5.88;;;4.93;;
14550;SDS011;7362;50.956;4.184;2022-08-19T12:15:17;6.28;;;4.35;;
14550;SDS011;7362;50.956;4.184;2022-08-19T12:17:45;8.18;;;4.57;;
14550;SDS011;7362;50.956;4.184;2022-08-19T12:20:12;5.53;;;3.85;;
14550;SDS011;7362;50.956;4.184;2022-08-19T12:22:40;9.32;;;5.07;;
14550;SDS011;7362;50.956;4.184;2022-08-19T12:25:10;5.97;;;3.95;;
14550;SDS011;7362;50.956;4.184;2022-08-19T12:27:38;3.92;;;3.30;;
14550;SDS011;7362;50.956;4.184;2022-08-19T12:30:06;6.10;;;3.65;;
14550;SDS011;7362;50.956;4.184;2022-08-19T12:32:33;5.03;;;4.03;;
14550;SDS011;7362;50.956;4.184;2022-08-19T12:34:59;7.60;;;3.83;;
14550;SDS011;7362;50.956;4.184;2022-08-19T12:37:27;5.50;;;3.97;;
14550;SDS011;7362;50.956;4.184;2022-08-19T12:39:53;6.60;;;3.90;;
14550;SDS011;7362;50.956;4.184;2022-08-19T12:42:18;3.95;;;2.88;;
14550;SDS011;7362;50.956;4.184;2022-08-19T12:44:44;4.28;;;3.22;;
14550;SDS011;7362;50.956;4.184;2022-08-19T12:47:12;3.22;;;2.40;;
14550;SDS011;7362;50.956;4.184;2022-08-19T12:49:42;3.50;;;2.67;;
14550;SDS011;7362;50.956;4.184;2022-08-19T12:52:09;4.03;;;3.45;;
14550;SDS011;7362;50.956;4.184;2022-08-19T12:54:42;4.78;;;2.60;;
14550;SDS011;7362;50.956;4.184;2022-08-19T12:57:11;2.97;;;2.22;;
14550;SDS011;7362;50.956;4.184;2022-08-19T12:59:38;6.10;;;3.10;;
14550;SDS011;7362;50.956;4.184;2022-08-19T13:02:05;3.70;;;2.58;;
14550;SDS011;7362;50.956;4.184;2022-08-19T13:04:35;3.70;;;2.17;;
14550;SDS011;7362;50.956;4.184;2022-08-19T13:07:04;2.58;;;1.73;;
14550;SDS011;7362;50.956;4.184;2022-08-19T13:09:30;3.97;;;2.60;;
14550;SDS011;7362;50.956;4.184;2022-08-19T13:11:56;2.17;;;1.83;;
14550;SDS011;7362;50.956;4.184;2022-08-19T13:14:39;3.28;;;2.10;;
14550;SDS011;7362;50.956;4.184;2022-08-19T13:17:15;4.07;;;2.22;;
14550;SDS011;7362;50.956;4.184;2022-08-19T13:19:41;3.83;;;2.30;;
14550;SDS011;7362;50.956;4.184;2022-08-19T13:22:11;2.85;;;2.03;;
14550;SDS011;7362;50.956;4.184;2022-08-19T13:24:39;2.70;;;1.98;;
14550;SDS011;7362;50.956;4.184;2022-08-19T13:27:05;4.00;;;1.92;;
14550;SDS011;7362;50.956;4.184;2022-08-19T13:29:33;2.08;;;1.63;;
14550;SDS011;7362;50.956;4.184;2022-08-19T13:32:24;5.32;;;2.05;;
14550;SDS011;7362;50.956;4.184;2022-08-19T13:35:09;2.40;;;1.80;;
14550;SDS011;7362;50.956;4.184;2022-08-19T13:37:38;2.92;;;1.70;;
14550;SDS011;7362;50.956;4.184;2022-08-19T13:40:13;5.72;;;1.80;;
14550;SDS011;7362;50.956;4.184;2022-08-19T13:42:44;2.92;;;1.70;;
14550;SDS011;7362;50.956;4.184;2022-08-19T13:45:16;2.83;;;2.15;;
14550;SDS011;7362;50.956;4.184;2022-08-19T13:57:09;5.47;;;2.17;;
14550;SDS011;7362;50.956;4.184;2022-08-19T14:02:59;3.22;;;2.60;;
14550;SDS011;7362;50.956;4.184;2022-08-19T14:08:15;4.38;;;1.73;;
14550;SDS011;7362;50.956;4.184;2022-08-19T14:13:47;2.95;;;1.98;;
14550;SDS011;7362;50.956;4.184;2022-08-19T14:16:38;4.05;;;2.22;;
14550;SDS011;7362;50.956;4.184;2022-08-19T14:19:07;2.55;;;1.50;;
14550;SDS011;7362;50.956;4.184;2022-08-19T14:24:56;3.42;;;2.10;;
14550;SDS011;7362;50.956;4.184;2022-08-19T14:27:23;2.70;;;1.88;;
14550;SDS011;7362;50.956;4.184;2022-08-19T14:36:36;3.70;;;2.30;;
14550;SDS011;7362;50.956;4.184;2022-08-19T14:39:07;3.08;;;2.15;;
14550;SDS011;7362;50.956;4.184;2022-08-19T14:41:35;2.65;;;1.58;;
14550;SDS011;7362;50.956;4.184;2022-08-19T14:44:01;2.95;;;1.63;;
14550;SDS011;7362;50.956;4.184;2022-08-19T14:46:35;1.98;;;1.50;;
14550;SDS011;7362;50.956;4.184;2022-08-19T14:49:16;2.38;;;1.67;;
14550;SDS011;7362;50.956;4.184;2022-08-19T14:51:46;2.67;;;1.58;;
14550;SDS011;7362;50.956;4.184;2022-08-19T14:54:15;4.32;;;1.75;;
14550;SDS011;7362;50.956;4.184;2022-08-19T14:56:41;3.05;;;1.60;;
14550;SDS011;7362;50.956;4.184;2022-08-19T14:59:09;4.93;;;2.03;;
14550;SDS011;7362;50.956;4.184;2022-08-19T15:01:36;3.58;;;2.00;;
14550;SDS011;7362;50.956;4.184;2022-08-19T15:04:03;2.30;;;1.77;;
14550;SDS011;7362;50.956;4.184;2022-08-19T15:06:29;2.15;;;1.20;;
14550;SDS011;7362;50.956;4.184;2022-08-19T15:08:55;2.42;;;1.40;;
14550;SDS011;7362;50.956;4.184;2022-08-19T15:11:22;1.30;;;1.10;;
14550;SDS011;7362;50.956;4.184;2022-08-19T15:13:50;1.95;;;1.27;;
14550;SDS011;7362;50.956;4.184;2022-08-19T15:26:48;1.67;;;1.15;;
14550;SDS011;7362;50.956;4.184;2022-08-19T15:29:23;2.38;;;1.30;;
14550;SDS011;7362;50.956;4.184;2022-08-19T15:31:51;2.85;;;1.58;;
14550;SDS011;7362;50.956;4.184;2022-08-19T15:34:22;2.05;;;1.38;;
14550;SDS011;7362;50.956;4.184;2022-08-19T15:36:53;1.45;;;1.08;;
14550;SDS011;7362;50.956;4.184;2022-08-19T15:39:19;2.53;;;1.40;;
14550;SDS011;7362;50.956;4.184;2022-08-19T15:41:46;2.30;;;1.40;;
14550;SDS011;7362;50.956;4.184;2022-08-19T15:44:13;4.50;;;2.15;;
14550;SDS011;7362;50.956;4.184;2022-08-19T15:46:43;2.83;;;1.35;;
14550;SDS011;7362;50.956;4.184;2022-08-19T15:49:13;2.20;;;1.08;;
14550;SDS011;7362;50.956;4.184;2022-08-19T15:51:42;1.33;;;1.10;;
14550;SDS011;7362;50.956;4.184;2022-08-19T15:54:13;3.47;;;1.70;;
14550;SDS011;7362;50.956;4.184;2022-08-19T15:56:45;3.38;;;1.63;;
14550;SDS011;7362;50.956;4.184;2022-08-19T15:59:32;4.47;;;1.63;;
14550;SDS011;7362;50.956;4.184;2022-08-19T16:02:36;7.88;;;1.30;;
14550;SDS011;7362;50.956;4.184;2022-08-19T16:05:24;2.17;;;1.42;;
14550;SDS011;7362;50.956;4.184;2022-08-19T16:08:12;2.38;;;1.65;;
14550;SDS011;7362;50.956;4.184;2022-08-19T16:10:39;4.78;;;1.73;;
14550;SDS011;7362;50.956;4.184;2022-08-19T16:13:05;3.05;;;1.75;;
14550;SDS011;7362;50.956;4.184;2022-08-19T16:15:31;6.38;;;1.98;;
14550;SDS011;7362;50.956;4.184;2022-08-19T16:17:57;2.75;;;1.80;;
14550;SDS011;7362;50.956;4.184;2022-08-19T16:20:26;2.95;;;1.83;;
14550;SDS011;7362;50.956;4.184;2022-08-19T16:22:54;2.20;;;1.65;;
14550;SDS011;7362;50.956;4.184;2022-08-19T16:25:24;2.63;;;1.92;;
14550;SDS011;7362;50.956;4.184;2022-08-19T16:27:53;2.97;;;2.30;;
14550;SDS011;7362;50.956;4.184;2022-08-19T16:30:19;4.13;;;2.40;;
14550;SDS011;7362;50.956;4.184;2022-08-19T16:35:14;3.53;;;2.13;;
14550;SDS011;7362;50.956;4.184;2022-08-19T16:37:41;2.78;;;1.65;;
14550;SDS011;7362;50.956;4.184;2022-08-19T16:40:07;2.67;;;2.22;;
14550;SDS011;7362;50.956;4.184;2022-08-19T16:42:34;4.60;;;2.10;;
14550;SDS011;7362;50.956;4.184;2022-08-19T16:45:01;3.45;;;2.50;;
14550;SDS011;7362;50.956;4.184;2022-08-19T16:47:29;4.32;;;2.53;;
14550;SDS011;7362;50.956;4.184;2022-08-19T16:49:54;4.22;;;2.90;;
14550;SDS011;7362;50.956;4.184;2022-08-19T16:52:24;3.83;;;2.33;;
14550;SDS011;7362;50.956;4.184;2022-08-19T16:54:51;3.25;;;2.15;;
14550;SDS011;7362;50.956;4.184;2022-08-19T16:57:18;5.05;;;2.78;;
14550;SDS011;7362;50.956;4.184;2022-08-19T16:59:44;4.18;;;2.95;;
14550;SDS011;7362;50.956;4.184;2022-08-19T17:02:10;4.85;;;2.90;;
14550;SDS011;7362;50.956;4.184;2022-08-19T17:04:37;4.28;;;2.50;;
14550;SDS011;7362;50.956;4.184;2022-08-19T17:07:04;4.60;;;2.63;;
14550;SDS011;7362;50.956;4.184;2022-08-19T17:09:30;4.72;;;2.28;;
14550;SDS011;7362;50.956;4.184;2022-08-19T17:11:58;2.63;;;2.20;;
14550;SDS011;7362;50.956;4.184;2022-08-19T17:14:24;3.55;;;2.15;;
14550;SDS011;7362;50.956;4.184;2022-08-19T17:16:50;3.95;;;2.92;;
14550;SDS011;7362;50.956;4.184;2022-08-19T17:19:17;4.45;;;3.08;;
14550;SDS011;7362;50.956;4.184;2022-08-19T17:21:44;3.80;;;2.42;;
14550;SDS011;7362;50.956;4.184;2022-08-19T17:24:10;3.17;;;2.15;;
14550;SDS011;7362;50.956;4.184;2022-08-19T17:26:38;4.00;;;2.83;;
14550;SDS011;7362;50.956;4.184;2022-08-19T17:29:05;3.25;;;2.63;;
14550;SDS011;7362;50.956;4.184;2022-08-19T17:31:31;4.60;;;2.60;;
14550;SDS011;7362;50.956;4.184;2022-08-19T17:36:28;4.05;;;2.90;;
14550;SDS011;7362;50.956;4.184;2022-08-19T17:38:57;4.82;;;3.17;;
14550;SDS011;7362;50.956;4.184;2022-08-19T17:41:24;5.18;;;2.97;;
14550;SDS011;7362;50.956;4.184;2022-08-19T17:44:06;4.97;;;2.50;;
14550;SDS011;7362;50.956;4.184;2022-08-19T17:46:34;4.22;;;2.95;;
14550;SDS011;7362;50.956;4.184;2022-08-19T17:49:02;4.88;;;2.75;;
14550;SDS011;7362;50.956;4.184;2022-08-19T17:53:58;3.88;;;2.90;;
14550;SDS011;7362;50.956;4.184;2022-08-19T17:56:26;6.18;;;2.63;;
14550;SDS011;7362;50.956;4.184;2022-08-19T17:58:54;3.60;;;2.95;;
14550;SDS011;7362;50.956;4.184;2022-08-19T18:01:20;2.95;;;2.22;;
14550;SDS011;7362;50.956;4.184;2022-08-19T18:03:46;5.07;;;2.50;;
14550;SDS011;7362;50.956;4.184;2022-08-19T18:06:14;4.25;;;2.67;;
14550;SDS011;7362;50.956;4.184;2022-08-19T18:08:41;5.88;;;2.90;;
14550;SDS011;7362;50.956;4.184;2022-08-19T18:11:09;5.43;;;3.20;;
14550;SDS011;7362;50.956;4.184;2022-08-19T18:13:39;5.43;;;3.00;;
14550;SDS011;7362;50.956;4.184;2022-08-19T18:16:05;4.97;;;3.33;;
14550;SDS011;7362;50.956;4.184;2022-08-19T18:18:54;4.15;;;2.88;;
14550;SDS011;7362;50.956;4.184;2022-08-19T18:21:21;4.15;;;3.20;;
14550;SDS011;7362;50.956;4.184;2022-08-19T18:26:31;4.40;;;2.80;;
14550;SDS011;7362;50.956;4.184;2022-08-19T18:28:57;5.47;;;3.20;;
14550;SDS011;7362;50.956;4.184;2022-08-19T18:31:24;7.95;;;3.40;;
14550;SDS011;7362;50.956;4.184;2022-08-19T18:39:03;4.30;;;2.90;;
14550;SDS011;7362;50.956;4.184;2022-08-19T18:45:14;5.63;;;3.00;;
14550;SDS011;7362;50.956;4.184;2022-08-19T19:04:49;5.60;;;3.58;;
14550;SDS011;7362;50.956;4.184;2022-08-19T19:07:15;4.57;;;3.70;;
14550;SDS011;7362;50.956;4.184;2022-08-19T19:09:44;4.78;;;2.85;;
14550;SDS011;7362;50.956;4.184;2022-08-19T19:12:14;4.15;;;3.20;;
14550;SDS011;7362;50.956;4.184;2022-08-19T19:14:41;4.80;;;3.20;;
14550;SDS011;7362;50.956;4.184;2022-08-19T19:17:10;3.85;;;3.25;;
14550;SDS011;7362;50.956;4.184;2022-08-19T19:24:36;7.35;;;3.55;;
14550;SDS011;7362;50.956;4.184;2022-08-19T19:27:04;3.85;;;2.42;;
14550;SDS011;7362;50.956;4.184;2022-08-19T19:29:34;6.50;;;3.10;;
14550;SDS011;7362;50.956;4.184;2022-08-19T19:32:05;3.20;;;2.75;;
14550;SDS011;7362;50.956;4.184;2022-08-19T19:34:33;4.78;;;2.45;;
14550;SDS011;7362;50.956;4.184;2022-08-19T19:37:05;3.75;;;2.63;;
14550;SDS011;7362;50.956;4.184;2022-08-19T19:39:31;3.40;;;2.65;;
14550;SDS011;7362;50.956;4.184;2022-08-19T19:41:57;3.40;;;2.35;;
14550;SDS011;7362;50.956;4.184;2022-08-19T19:44:25;3.20;;;2.40;;
14550;SDS011;7362;50.956;4.184;2022-08-19T19:46:53;5.53;;;2.42;;
14550;SDS011;7362;50.956;4.184;2022-08-19T19:49:24;2.65;;;2.00;;
14550;SDS011;7362;50.956;4.184;2022-08-19T19:52:07;2.78;;;2.28;;
14550;SDS011;7362;50.956;4.184;2022-08-19T19:54:36;4.10;;;2.30;;
14550;SDS011;7362;50.956;4.184;2022-08-19T19:57:04;2.45;;;1.58;;
14550;SDS011;7362;50.956;4.184;2022-08-19T19:59:32;2.90;;;2.05;;
14550;SDS011;7362;50.956;4.184;2022-08-19T20:02:00;3.83;;;1.58;;
14550;SDS011;7362;50.956;4.184;2022-08-19T20:04:26;3.55;;;1.50;;
14550;SDS011;7362;50.956;4.184;2022-08-19T20:06:53;2.20;;;1.50;;
14550;SDS011;7362;50.956;4.184;2022-08-19T20:09:20;2.85;;;1.40;;
14550;SDS011;7362;50.956;4.184;2022-08-19T20:11:57;2.97;;;1.50;;
14550;SDS011;7362;50.956;4.184;2022-08-19T20:14:29;2.40;;;1.50;;
14550;SDS011;7362;50.956;4.184;2022-08-19T20:16:57;2.10;;;1.33;;
14550;SDS011;7362;50.956;4.184;2022-08-19T20:19:25;1.98;;;1.42;;
14550;SDS011;7362;50.956;4.184;2022-08-19T20:22:01;2.80;;;1.50;;
14550;SDS011;7362;50.956;4.184;2022-08-19T20:24:31;4.25;;;1.52;;